sim
Sign-in with your pilot id or email,
or register
Callsign
Passwort

Schedule Details

Flight Number: RYR3369
Departure: Fuerteventura Airport (GCFV) at 11:05
Arrival: Shannon Airport (EINN) at 15:15
Route: Ryanair Passenger Schedule. Enter filed route here before submitting Pirep.

Weather Information
Getting current METAR information for GCFV 231030Z 05013KT 9999 FEW020 24/18 Q1017
Getting current METAR information for EINN 231030Z 15011KT 9999 FEW014 SCT017 BKN022 20/15 Q1013 WS RWY24 NOSIG

Schedule Frequency

Route Map